Аэропорт: Основа. Харьков

ICAO: UKHH

METAR:
2018/11/19 10:00
UKHH 191000Z 11005MPS CAVOK 03/M12 Q1026 R07/0///72 NOSIG
METAR:
2018/11/09 15:24
TAF 
      AMD TAF 
      AMD UKHH 091519Z 0915/1024 06002MPS 1100 BR OVC002 TX01/0915Z TNM01/0924Z 
      TEMPO 0915/0918 0300 FG 
      BECMG 0918/0919 0300 FZFG OVC001 PROB40 
      TEMPO 0919/0924 -FZDZ